createdAt,value
2022-12-11T00:00:10.411Z,11.40
2022-12-11T00:02:37.356Z,10.27
2022-12-11T00:05:04.631Z,10.17
2022-12-11T00:07:31.430Z,10.50
2022-12-11T00:09:58.521Z,10.97
2022-12-11T00:12:25.395Z,11.80
2022-12-11T00:14:52.365Z,10.97
2022-12-11T00:17:19.161Z,11.03
2022-12-11T00:19:45.950Z,11.63
2022-12-11T00:22:12.748Z,12.00
2022-12-11T00:24:39.547Z,11.10
2022-12-11T00:27:06.370Z,11.50
2022-12-11T00:29:33.169Z,10.80
2022-12-11T00:32:00.035Z,11.23
2022-12-11T00:34:26.950Z,10.73
2022-12-11T00:36:53.739Z,11.30
2022-12-11T00:39:20.490Z,10.87
2022-12-11T00:41:47.286Z,10.30
2022-12-11T00:44:14.058Z,10.30
2022-12-11T00:46:40.902Z,11.83
2022-12-11T00:49:07.740Z,10.77
2022-12-11T00:51:34.557Z,10.80
2022-12-11T00:54:01.308Z,10.67
2022-12-11T00:56:28.110Z,10.87
2022-12-11T00:58:54.954Z,10.37
2022-12-11T01:01:23.914Z,10.83
2022-12-11T01:03:53.358Z,11.20
2022-12-11T01:06:24.488Z,11.23
2022-12-11T01:09:14.555Z,11.00
2022-12-11T01:11:42.858Z,11.60
2022-12-11T01:14:11.151Z,11.00
2022-12-11T01:16:38.226Z,11.40
2022-12-11T01:19:05.293Z,11.23
2022-12-11T01:21:32.440Z,11.47
2022-12-11T01:23:59.284Z,10.53
2022-12-11T01:26:26.232Z,10.27
2022-12-11T01:28:53.250Z,10.37
2022-12-11T01:31:20.850Z,11.53
2022-12-11T01:33:47.902Z,10.97
2022-12-11T01:36:20.232Z,11.87
2022-12-11T01:38:48.871Z,10.67
2022-12-11T01:41:17.656Z,10.43
2022-12-11T01:44:07.011Z,11.07
2022-12-11T01:46:35.837Z,11.07
2022-12-11T01:49:05.885Z,11.57
2022-12-11T01:51:36.048Z,11.10
2022-12-11T01:54:09.020Z,11.60
2022-12-11T01:56:37.940Z,10.87
2022-12-11T01:59:07.887Z,11.17
2022-12-11T02:01:39.577Z,11.33
2022-12-11T02:04:09.167Z,11.47
2022-12-11T02:06:48.392Z,11.10
2022-12-11T02:09:18.770Z,11.20
2022-12-11T02:11:45.540Z,11.63
2022-12-11T02:14:30.370Z,11.57
2022-12-11T02:17:03.228Z,11.50
2022-12-11T02:19:52.716Z,11.60
2022-12-11T02:22:47.186Z,11.60
2022-12-11T02:25:36.927Z,12.40
2022-12-11T02:28:21.197Z,12.77
2022-12-11T02:30:53.986Z,11.47
2022-12-11T02:33:29.827Z,12.23
2022-12-11T02:35:57.112Z,11.33
2022-12-11T02:38:32.470Z,12.03
2022-12-11T02:41:01.225Z,11.87
2022-12-11T02:43:31.378Z,11.50
2022-12-11T02:45:59.753Z,11.90
2022-12-11T02:48:26.904Z,11.33
2022-12-11T02:50:57.597Z,11.50
2022-12-11T02:53:28.175Z,12.07
2022-12-11T02:56:22.758Z,11.43
2022-12-11T02:58:58.465Z,12.23
2022-12-11T03:01:26.756Z,11.70
2022-12-11T03:03:55.111Z,11.37
2022-12-11T03:06:26.766Z,11.60
2022-12-11T03:08:53.583Z,11.90
2022-12-11T03:11:20.369Z,12.50
2022-12-11T03:13:47.182Z,11.50
2022-12-11T03:16:37.371Z,12.60
2022-12-11T03:19:38.761Z,11.80
2022-12-11T03:22:31.444Z,11.40
2022-12-11T03:25:04.875Z,12.70
2022-12-11T03:27:45.210Z,13.10
2022-12-11T03:30:17.878Z,12.63
2022-12-11T03:32:54.851Z,11.50
2022-12-11T03:35:51.338Z,13.40
2022-12-11T03:38:34.266Z,13.47
2022-12-11T03:41:03.515Z,11.73
2022-12-11T03:43:32.078Z,11.93
2022-12-11T03:46:00.770Z,11.73
2022-12-11T03:48:35.294Z,12.60
2022-12-11T03:51:05.275Z,12.10
2022-12-11T03:53:36.783Z,12.27
2022-12-11T03:56:07.976Z,12.67
2022-12-11T03:58:34.916Z,12.57
2022-12-11T04:01:01.733Z,12.43
2022-12-11T04:03:28.625Z,11.93
2022-12-11T04:05:56.794Z,11.60
2022-12-11T04:08:23.992Z,12.33
2022-12-11T04:11:10.545Z,12.63
2022-12-11T04:13:38.101Z,11.67
2022-12-11T04:16:05.216Z,12.67
2022-12-11T04:18:51.052Z,12.87
2022-12-11T04:21:39.473Z,14.43
2022-12-11T04:24:16.348Z,13.43
2022-12-11T04:26:44.953Z,12.73
2022-12-11T04:29:11.804Z,12.77
2022-12-11T04:31:38.582Z,12.47
2022-12-11T04:34:06.105Z,13.20
2022-12-11T04:36:32.940Z,13.57
2022-12-11T04:38:59.757Z,12.80
2022-12-11T04:41:26.544Z,12.93
2022-12-11T04:43:53.357Z,12.20
2022-12-11T04:46:22.660Z,12.60
2022-12-11T04:48:56.795Z,12.67
2022-12-11T04:51:24.148Z,13.00
2022-12-11T04:53:50.986Z,12.57
2022-12-11T04:56:17.860Z,12.13
2022-12-11T04:58:45.762Z,13.03
2022-12-11T05:01:15.915Z,12.83
2022-12-11T05:03:43.371Z,13.20
2022-12-11T05:06:11.377Z,11.90
2022-12-11T05:08:40.366Z,14.43
2022-12-11T05:11:10.522Z,13.00
2022-12-11T05:13:38.315Z,14.40
2022-12-11T05:16:06.874Z,13.60
2022-12-11T05:18:34.019Z,13.90
2022-12-11T05:21:03.775Z,14.80
2022-12-11T05:23:31.122Z,15.23
2022-12-11T05:26:00.586Z,14.70
2022-12-11T05:28:30.001Z,13.77
2022-12-11T05:30:58.905Z,12.23
2022-12-11T05:33:26.725Z,12.83
2022-12-11T05:35:53.638Z,12.73
2022-12-11T05:38:21.241Z,12.50
2022-12-11T05:40:58.829Z,13.10
2022-12-11T05:43:27.164Z,13.23
2022-12-11T05:45:54.835Z,12.23
2022-12-11T05:48:22.254Z,13.00
2022-12-11T05:50:59.493Z,11.83
2022-12-11T05:53:26.859Z,13.80
2022-12-11T05:55:53.946Z,13.70
2022-12-11T05:58:21.493Z,11.57
2022-12-11T06:00:48.419Z,12.83
2022-12-11T06:03:15.987Z,11.53
2022-12-11T06:05:43.118Z,12.67
2022-12-11T06:08:10.227Z,12.53
2022-12-11T06:10:37.327Z,12.27
2022-12-11T06:13:04.655Z,11.80
2022-12-11T06:15:32.586Z,12.60
2022-12-11T06:17:59.356Z,13.13
2022-12-11T06:20:26.168Z,13.03
2022-12-11T06:22:52.931Z,12.77
2022-12-11T06:25:19.699Z,13.40
2022-12-11T06:27:46.501Z,12.63
2022-12-11T06:30:13.603Z,13.43
2022-12-11T06:32:40.363Z,13.90
2022-12-11T06:35:07.520Z,14.30
2022-12-11T06:37:36.217Z,13.50
2022-12-11T06:40:05.124Z,14.03
2022-12-11T06:42:32.188Z,14.13
2022-12-11T06:44:59.910Z,13.73
2022-12-11T06:47:27.650Z,12.67
2022-12-11T06:49:54.698Z,13.90
2022-12-11T06:52:23.030Z,12.97
2022-12-11T06:54:50.673Z,13.93
2022-12-11T06:57:18.169Z,12.63
2022-12-11T06:59:45.321Z,12.90
2022-12-11T07:02:16.670Z,13.10
2022-12-11T07:04:44.237Z,12.23
2022-12-11T07:07:11.473Z,12.77
2022-12-11T07:09:40.445Z,12.20
2022-12-11T07:12:07.701Z,11.03
2022-12-11T07:14:34.621Z,12.40
2022-12-11T07:17:01.829Z,11.83
2022-12-11T07:19:28.734Z,10.77
2022-12-11T07:21:55.561Z,11.93
2022-12-11T07:24:22.646Z,10.27
2022-12-11T07:26:49.551Z,10.33
2022-12-11T07:29:16.499Z,10.87
2022-12-11T07:31:43.380Z,10.20
2022-12-11T07:34:12.554Z,10.00
2022-12-11T07:36:39.431Z,9.17
2022-12-11T07:39:07.498Z,10.00
2022-12-11T07:41:34.674Z,8.40
2022-12-11T07:44:02.470Z,8.67
2022-12-11T07:46:31.276Z,8.63
2022-12-11T07:49:00.941Z,9.43
2022-12-11T07:51:31.341Z,9.67
2022-12-11T07:54:10.692Z,9.67
2022-12-11T07:56:37.447Z,9.87
2022-12-11T07:59:05.971Z,12.00
2022-12-11T08:01:38.101Z,8.20
2022-12-11T08:04:07.253Z,8.77
2022-12-11T08:06:36.627Z,9.50
2022-12-11T08:09:06.614Z,9.00
2022-12-11T08:11:33.550Z,9.33
2022-12-11T08:14:00.542Z,9.53
2022-12-11T08:16:27.993Z,8.83
2022-12-11T08:18:55.564Z,8.53
2022-12-11T08:21:26.488Z,8.70
2022-12-11T08:23:54.158Z,8.43
2022-12-11T08:26:29.724Z,8.97
2022-12-11T08:28:57.253Z,9.47
2022-12-11T08:31:24.625Z,8.77
2022-12-11T08:33:52.558Z,10.43
2022-12-11T08:36:21.625Z,9.20
2022-12-11T08:38:50.280Z,9.60
2022-12-11T08:41:24.095Z,8.13
2022-12-11T08:43:54.825Z,12.43
2022-12-11T08:46:27.538Z,9.60
2022-12-11T08:48:55.420Z,9.13
2022-12-11T08:51:24.195Z,8.47
2022-12-11T08:53:54.292Z,11.13
2022-12-11T08:56:23.605Z,9.03
2022-12-11T08:58:51.294Z,12.63
2022-12-11T09:01:27.695Z,9.63
2022-12-11T09:03:56.025Z,8.97
2022-12-11T09:06:24.767Z,9.80
2022-12-11T09:08:53.295Z,11.20
2022-12-11T09:11:29.511Z,11.53
2022-12-11T09:13:58.163Z,10.83
2022-12-11T09:16:27.331Z,9.67
2022-12-11T09:18:56.273Z,9.10
2022-12-11T09:21:28.891Z,9.47
2022-12-11T09:24:00.918Z,9.00
2022-12-11T09:26:30.138Z,9.30
2022-12-11T09:28:57.570Z,9.23
2022-12-11T09:31:27.449Z,9.23
2022-12-11T09:33:57.570Z,9.73
2022-12-11T09:36:24.878Z,9.20
2022-12-11T09:38:52.350Z,8.93
2022-12-11T09:41:22.257Z,9.07
2022-12-11T09:43:59.363Z,8.93
2022-12-11T09:46:32.123Z,9.30
2022-12-11T09:49:02.734Z,8.73
2022-12-11T09:51:50.980Z,8.70
2022-12-11T09:54:18.175Z,8.13
2022-12-11T09:57:16.123Z,8.63
2022-12-11T10:00:10.967Z,8.70
2022-12-11T10:03:11.079Z,10.03
2022-12-11T10:05:43.067Z,9.83
2022-12-11T10:08:17.520Z,8.00
2022-12-11T10:10:49.653Z,9.43
2022-12-11T10:13:31.518Z,8.80
2022-12-11T10:16:05.534Z,9.00
2022-12-11T10:18:33.079Z,9.00
2022-12-11T10:21:03.185Z,10.03
2022-12-11T10:23:53.078Z,9.50
2022-12-11T10:26:22.744Z,9.10
2022-12-11T10:28:49.728Z,9.03
2022-12-11T10:31:43.570Z,9.33
2022-12-11T10:34:20.739Z,8.40
2022-12-11T10:36:47.576Z,9.60
2022-12-11T10:39:20.117Z,9.03
2022-12-11T10:41:51.652Z,10.33
2022-12-11T10:44:25.848Z,9.20
2022-12-11T10:47:01.981Z,9.70
2022-12-11T10:49:31.715Z,9.40
2022-12-11T10:52:01.518Z,9.73
2022-12-11T10:54:40.500Z,10.53
2022-12-11T10:57:09.902Z,10.67
2022-12-11T10:59:50.605Z,10.80
2022-12-11T11:02:27.921Z,10.80
2022-12-11T11:04:56.425Z,9.93
2022-12-11T11:07:31.414Z,11.20
2022-12-11T11:10:11.625Z,10.30
2022-12-11T11:12:47.562Z,9.30
2022-12-11T11:15:17.764Z,10.50
2022-12-11T11:17:55.434Z,13.03
2022-12-11T11:20:26.524Z,9.97
2022-12-11T11:23:05.032Z,9.20
2022-12-11T11:25:33.457Z,10.60
2022-12-11T11:28:08.348Z,10.27
2022-12-11T11:30:41.641Z,10.20
2022-12-11T11:33:19.678Z,10.70
2022-12-11T11:35:53.861Z,9.30
2022-12-11T11:38:46.830Z,9.23
2022-12-11T11:41:29.952Z,11.23
2022-12-11T11:44:00.590Z,10.27
2022-12-11T11:46:36.680Z,10.63
2022-12-11T11:49:28.195Z,9.60
2022-12-11T11:52:21.704Z,10.03
2022-12-11T11:54:58.096Z,9.17
2022-12-11T11:57:53.263Z,9.87
2022-12-11T12:00:26.488Z,9.50
2022-12-11T12:03:03.741Z,10.30
2022-12-11T12:05:55.828Z,9.90
2022-12-11T12:08:56.130Z,10.33
2022-12-11T12:11:40.269Z,9.63
2022-12-11T12:14:50.745Z,10.57
2022-12-11T12:17:09.225Z,9.03
2022-12-11T12:19:57.719Z,10.30
2022-12-11T12:22:42.671Z,9.60
2022-12-11T12:25:31.363Z,10.20
2022-12-11T12:28:08.521Z,10.13
2022-12-11T12:30:58.540Z,10.77
2022-12-11T12:33:58.464Z,10.77
2022-12-11T12:36:45.815Z,11.13
2022-12-11T12:39:30.610Z,10.53
2022-12-11T12:42:08.533Z,9.97
2022-12-11T12:45:03.826Z,10.60
2022-12-11T12:47:35.802Z,9.97
2022-12-11T12:50:04.571Z,9.70
2022-12-11T12:52:37.244Z,9.73
2022-12-11T12:55:29.005Z,9.20
2022-12-11T12:58:06.791Z,10.53
2022-12-11T13:00:36.601Z,9.83
2022-12-11T13:03:20.229Z,9.33
2022-12-11T13:06:09.797Z,9.77
2022-12-11T13:08:48.521Z,9.80
2022-12-11T13:11:18.412Z,9.63
2022-12-11T13:14:03.833Z,9.17
2022-12-11T13:16:42.039Z,9.27
2022-12-11T13:19:24.014Z,9.80
2022-12-11T13:22:12.696Z,9.13
2022-12-11T13:25:19.270Z,12.40
2022-12-11T13:27:46.154Z,11.83
2022-12-11T13:30:15.768Z,12.20
2022-12-11T13:32:52.173Z,10.53
2022-12-11T13:35:19.030Z,10.57
2022-12-11T13:37:49.728Z,9.43
2022-12-11T13:40:25.836Z,9.33
2022-12-11T13:43:03.489Z,9.63
2022-12-11T13:45:34.337Z,10.07
2022-12-11T13:48:01.554Z,10.13
2022-12-11T13:50:34.508Z,10.30
2022-12-11T13:53:02.835Z,10.00
2022-12-11T13:55:32.024Z,10.00
2022-12-11T13:57:59.528Z,9.37
2022-12-11T14:00:32.743Z,9.63
2022-12-11T14:03:04.817Z,10.43
2022-12-11T14:05:31.891Z,9.70
2022-12-11T14:08:02.000Z,10.07
2022-12-11T14:10:32.048Z,11.33
2022-12-11T14:13:39.665Z,10.80
2022-12-11T14:16:07.276Z,9.80
2022-12-11T14:18:36.598Z,10.77
2022-12-11T14:21:05.856Z,9.17
2022-12-11T14:23:35.509Z,9.43
2022-12-11T14:26:18.795Z,9.27
2022-12-11T14:28:45.990Z,9.93
2022-12-11T14:31:35.097Z,9.47
2022-12-11T14:34:07.120Z,9.73
2022-12-11T14:36:36.090Z,9.83
2022-12-11T14:39:13.842Z,10.43
2022-12-11T14:41:40.720Z,9.80
2022-12-11T14:44:14.336Z,9.33
2022-12-11T14:46:47.447Z,9.93
2022-12-11T14:49:40.591Z,10.50
2022-12-11T14:52:17.613Z,9.33
2022-12-11T14:54:51.318Z,10.60
2022-12-11T14:57:26.048Z,10.10
2022-12-11T14:59:54.098Z,10.20
2022-12-11T15:02:32.164Z,9.47
2022-12-11T15:05:26.241Z,9.63
2022-12-11T15:08:13.008Z,9.80
2022-12-11T15:10:45.024Z,9.90
2022-12-11T15:13:13.964Z,10.93
2022-12-11T15:15:46.594Z,10.03
2022-12-11T15:18:22.525Z,9.97
2022-12-11T15:20:54.671Z,10.37
2022-12-11T15:23:21.949Z,9.87
2022-12-11T15:25:54.871Z,10.67
2022-12-11T15:28:36.437Z,10.40
2022-12-11T15:31:22.277Z,10.10
2022-12-11T15:33:49.134Z,11.10
2022-12-11T15:36:21.762Z,11.07
2022-12-11T15:38:48.573Z,11.20
2022-12-11T15:41:17.739Z,11.43
2022-12-11T15:43:45.115Z,10.57
2022-12-11T15:46:12.064Z,10.57
2022-12-11T15:48:39.139Z,11.87
2022-12-11T15:51:06.298Z,10.73
2022-12-11T15:53:33.080Z,10.50
2022-12-11T15:56:00.266Z,9.90
2022-12-11T15:58:27.510Z,9.57
2022-12-11T16:00:54.975Z,9.83
2022-12-11T16:03:23.606Z,9.97
2022-12-11T16:05:52.116Z,10.73
2022-12-11T16:08:21.869Z,10.63
2022-12-11T16:10:48.826Z,10.77
2022-12-11T16:13:15.650Z,10.30
2022-12-11T16:15:47.733Z,11.10
2022-12-11T16:18:21.586Z,11.30
2022-12-11T16:20:50.942Z,19.20
2022-12-11T16:23:18.380Z,13.13
2022-12-11T16:25:46.562Z,17.33
2022-12-11T16:28:15.137Z,28.77
2022-12-11T16:30:43.479Z,13.57
2022-12-11T16:33:13.087Z,14.70
2022-12-11T16:35:41.930Z,13.63
2022-12-11T16:38:10.111Z,13.70
2022-12-11T16:40:37.809Z,12.47
2022-12-11T16:43:05.521Z,13.70
2022-12-11T16:45:32.879Z,13.53
2022-12-11T16:48:04.025Z,13.23
2022-12-11T16:50:32.157Z,13.00
2022-12-11T16:52:59.210Z,12.40
2022-12-11T16:55:26.082Z,13.43
2022-12-11T16:57:52.866Z,13.40
2022-12-11T17:00:20.451Z,13.43
2022-12-11T17:02:47.286Z,13.67
2022-12-11T17:05:14.570Z,12.20
2022-12-11T17:07:41.651Z,12.53
2022-12-11T17:10:09.084Z,12.63
2022-12-11T17:12:36.091Z,14.50
2022-12-11T17:15:03.235Z,13.97
2022-12-11T17:17:30.036Z,13.87
2022-12-11T17:19:57.519Z,13.07
2022-12-11T17:22:25.716Z,12.30
2022-12-11T17:24:52.734Z,12.23
2022-12-11T17:27:19.510Z,12.73
2022-12-11T17:29:49.408Z,12.63
2022-12-11T17:32:17.519Z,11.97
2022-12-11T17:34:44.988Z,11.43
2022-12-11T17:37:11.900Z,12.60
2022-12-11T17:39:38.697Z,11.60
2022-12-11T17:42:06.355Z,13.80
2022-12-11T17:44:33.208Z,11.83
2022-12-11T17:47:02.655Z,10.90
2022-12-11T17:49:33.137Z,11.67
2022-12-11T17:52:00.258Z,12.40
2022-12-11T17:54:27.136Z,13.40
2022-12-11T17:56:54.077Z,13.90
2022-12-11T17:59:21.192Z,14.60
2022-12-11T18:01:48.159Z,15.63
2022-12-11T18:04:15.026Z,13.47
2022-12-11T18:06:41.825Z,13.53
2022-12-11T18:09:08.802Z,13.80
2022-12-11T18:11:35.687Z,14.37
2022-12-11T18:14:02.613Z,13.87
2022-12-11T18:16:33.289Z,14.87
2022-12-11T18:19:00.227Z,13.30
2022-12-11T18:21:33.611Z,14.60
2022-12-11T18:24:01.799Z,14.17
2022-12-11T18:26:29.078Z,12.80
2022-12-11T18:28:55.958Z,13.30
2022-12-11T18:31:23.790Z,12.60
2022-12-11T18:33:52.061Z,12.23
2022-12-11T18:36:20.324Z,11.73
2022-12-11T18:38:47.962Z,11.13
2022-12-11T18:41:16.679Z,12.97
2022-12-11T18:43:43.584Z,11.37
2022-12-11T18:46:16.154Z,12.67
2022-12-11T18:48:44.263Z,12.60
2022-12-11T18:51:18.474Z,13.00
2022-12-11T18:53:45.749Z,13.87
2022-12-11T18:56:15.573Z,12.50
2022-12-11T18:58:43.207Z,13.20
2022-12-11T19:01:34.151Z,12.57
2022-12-11T19:04:06.498Z,12.37
2022-12-11T19:06:35.920Z,12.13
2022-12-11T19:09:04.926Z,13.90
2022-12-11T19:11:33.341Z,13.20
2022-12-11T19:14:00.843Z,12.67
2022-12-11T19:16:33.815Z,14.73
2022-12-11T19:19:03.621Z,12.77
2022-12-11T19:21:30.722Z,14.00
2022-12-11T19:23:59.276Z,13.73
2022-12-11T19:26:26.340Z,13.87
2022-12-11T19:28:53.556Z,13.10
2022-12-11T19:31:23.400Z,13.93
2022-12-11T19:33:50.440Z,13.47
2022-12-11T19:36:21.474Z,12.70
2022-12-11T19:38:48.968Z,11.70
2022-12-11T19:41:21.946Z,12.77
2022-12-11T19:43:50.259Z,12.47
2022-12-11T19:46:18.008Z,13.97
2022-12-11T19:48:45.094Z,12.73
2022-12-11T19:51:17.975Z,14.17
2022-12-11T19:53:47.729Z,13.33
2022-12-11T19:56:16.678Z,13.30
2022-12-11T19:58:43.475Z,13.80
2022-12-11T20:01:17.567Z,12.33
2022-12-11T20:03:44.558Z,12.83
2022-12-11T20:06:13.648Z,12.33
2022-12-11T20:08:45.193Z,12.27
2022-12-11T20:11:17.825Z,13.60
2022-12-11T20:13:45.949Z,12.83
2022-12-11T20:16:13.375Z,12.43
2022-12-11T20:18:40.524Z,12.10
2022-12-11T20:21:09.733Z,10.97
2022-12-11T20:23:36.741Z,12.57
2022-12-11T20:26:08.689Z,12.10
2022-12-11T20:28:35.903Z,13.07
2022-12-11T20:31:07.382Z,12.87
2022-12-11T20:33:34.579Z,12.67
2022-12-11T20:36:01.577Z,12.33
2022-12-11T20:38:34.093Z,12.83
2022-12-11T20:41:01.554Z,12.87
2022-12-11T20:43:28.363Z,12.93
2022-12-11T20:45:55.137Z,13.63
2022-12-11T20:48:22.166Z,12.67
2022-12-11T20:50:49.191Z,12.57
2022-12-11T20:53:16.255Z,12.90
2022-12-11T20:55:44.020Z,13.43
2022-12-11T20:58:10.986Z,13.10
2022-12-11T21:00:39.523Z,13.13
2022-12-11T21:03:06.750Z,13.17
2022-12-11T21:05:33.739Z,13.07
2022-12-11T21:08:00.588Z,12.63
2022-12-11T21:10:27.400Z,13.33
2022-12-11T21:12:54.236Z,12.17
2022-12-11T21:15:21.008Z,13.13
2022-12-11T21:17:47.767Z,11.23
2022-12-11T21:20:14.610Z,11.40
2022-12-11T21:22:41.394Z,12.17
2022-12-11T21:25:08.469Z,12.97
2022-12-11T21:27:35.388Z,12.90
2022-12-11T21:30:02.315Z,13.10
2022-12-11T21:32:29.992Z,12.27
2022-12-11T21:34:58.596Z,13.57
2022-12-11T21:37:25.373Z,14.27
2022-12-11T21:39:56.117Z,12.73
2022-12-11T21:42:23.945Z,14.00
2022-12-11T21:47:37.471Z,15.30
2022-12-11T21:50:04.574Z,13.57
2022-12-11T21:52:31.332Z,12.43
2022-12-11T21:54:58.169Z,13.77
2022-12-11T21:57:26.715Z,13.43
2022-12-11T21:59:53.747Z,15.43
2022-12-11T22:02:20.616Z,14.93
2022-12-11T22:04:47.510Z,12.90
2022-12-11T22:07:16.211Z,15.60
2022-12-11T22:09:43.377Z,17.17
2022-12-11T22:12:21.191Z,15.47
2022-12-11T22:14:48.396Z,14.10
2022-12-11T22:17:15.435Z,15.50
2022-12-11T22:19:42.215Z,15.53
2022-12-11T22:22:09.070Z,18.80
2022-12-11T22:24:36.387Z,16.60
2022-12-11T22:27:03.236Z,15.10
2022-12-11T22:29:30.056Z,16.57
2022-12-11T22:31:57.561Z,14.63
2022-12-11T22:34:24.387Z,14.03
2022-12-11T22:36:51.498Z,13.07
2022-12-11T22:39:18.349Z,14.13
2022-12-11T22:41:45.099Z,12.97
2022-12-11T22:44:17.384Z,12.40
2022-12-11T22:46:49.624Z,13.43
2022-12-11T22:49:18.357Z,12.60
2022-12-11T22:51:45.367Z,11.50
2022-12-11T22:54:12.257Z,13.00
2022-12-11T22:56:39.131Z,13.37
2022-12-11T22:59:07.512Z,14.10
2022-12-11T23:01:34.573Z,12.70
2022-12-11T23:04:01.462Z,14.70
2022-12-11T23:06:28.280Z,13.47
2022-12-11T23:08:58.637Z,13.57
2022-12-11T23:11:29.114Z,14.73
2022-12-11T23:13:56.881Z,14.20
2022-12-11T23:16:25.196Z,14.80
2022-12-11T23:18:52.529Z,14.80
2022-12-11T23:21:20.067Z,14.47
2022-12-11T23:23:46.927Z,14.43
2022-12-11T23:26:15.450Z,14.70
2022-12-11T23:28:42.382Z,14.20
2022-12-11T23:31:09.505Z,13.23
2022-12-11T23:33:37.228Z,13.80
2022-12-11T23:36:05.590Z,14.27
2022-12-11T23:38:32.789Z,14.53
2022-12-11T23:41:01.769Z,13.07
2022-12-11T23:43:29.014Z,15.63
2022-12-11T23:45:56.527Z,13.27
2022-12-11T23:48:23.725Z,14.40
2022-12-11T23:50:50.718Z,14.53
2022-12-11T23:53:17.554Z,13.43
2022-12-11T23:55:45.387Z,13.43
2022-12-11T23:58:12.482Z,11.70
